Charlotte Ama, Virgin Islands
Current Conditions -  °F | °C
As of 6:00 PM on Wednesday 22 Oct 2014 (Local Time) from TUPJ Reporting Station
Few Clouds Few Clouds  
Wind Chill: 82°   Ceiling: Unl
Heat Index: 88°   Visibility: 6mi
Dew Point: 73°   Wind: 3mph
Humidity: 74%   Direction: NA
Pressure: 29.88"   Gusts: NA
Location:  18.3436°N, 64.9322°W
Report Text: TUPJ 222200Z VRB03KT 9999 FEW020 28/23 Q1012 RMK A2991
Loading
Personal Weather Stations






























Interactive Weather Map
Tropical Storm Tracking
New forecast layout! Learn more

10-Day Weather Forecast

Advertisements
Track Severe Weather on mobile